Archival Weather

Republic

Farmingdale, New York (KFRG)

Report from: Sunday, February 18, 2024 1:53 PM EST
Current time: Friday, June 14, 2024 9:31 AM EDT

Current weather – Weather history – Daily summaries
Weather forecast

Temperature3.3°C (37.9°F)
Wind chill-1.5°C (29.2°F)
Dew point-8.9°C (16.0°F)
Winds 13 kts (6.7 m/s, 15 mph) West-Southwest (240°)
Wind gusts 25 kts (12.9 m/s, 28.8 mph)
Peak wind 38 kts (19.5 m/s, 43.7 mph) West (260°) at 18:08
Visibility10 mi. (16.1 km)
Clouds Sky clear
Altimeter29.79 in.Hg (1009 mB)
Relative humidity40 %
Density altitude-1,217 ft. (-371 m)
Sea-level pressure100.9 kPa (1009 mB, 29.79 in.Hg)
Remarks Automated weather observing station without precipitation discriminator
Flight conditions Visual Meteorological Conditions
Raw dataKFRG 181853Z 24013G25KT 10SM CLR 03/M09 A2979 RMK AO1 PK WND 26038/1808 SLP089 T00331089
An error has occurred. This application may no longer respond until reloaded. Reload 🗙